Rodney Mitchell — WCV8372 — position and weather

sailwx.info

Track history (hours):
 
Tides and Currents Weather Stations Pressure Air Temp Water Temp Dewpoint Dewpoint Depression Visibility Wind Speed Wind Dir Waves Ship Positions

Rodney Mitchell

Owner: VINTON CROSBY INC, GOLDEN MEADOW, LA. More information available from US FCC via Universal Licensing System and Coast Guard Vessel Documentation Center.

Last reported at 2014-Nov-22 02:18 UTC. Time now 2014-Nov-22 02:54 UTC.
Position N 29°34' W 090°35'.

; draft 3 m.

Type: Towing. MMSI: 367028860.

Date/timePositionNaut miles runAvg speedWind from/ knotsBaromVisibWave heightAir tempDewpointWater temp
2014-Nov-22 02:18N 29°34' W 090°35'6 3.7
2014-Nov-22 00:33N 29°33' W 090°27'  
2014-Nov-19 00:04N 29°56' W 090°08'29 1.0
2014-Nov-17 18:26N 29°33' W 090°28'9 4.5
2014-Nov-17 16:30N 29°35' W 090°38'17 3.2
2014-Nov-17 11:21N 29°34' W 090°57'3 4.2
2014-Nov-17 10:31N 29°37' W 090°60'2 2.1
2014-Nov-17 09:33N 29°37' W 091°02'4 4.3
2014-Nov-17 08:33N 29°38' W 091°07'4 4.3
2014-Nov-17 07:33N 29°41' W 091°11'3 3.2
2014-Nov-17 06:34N 29°40' W 091°14'5 4.8
2014-Nov-17 05:33N 29°38' W 091°19'2 1.6
2014-Nov-17 04:32N 29°39' W 091°21'5 4.4
2014-Nov-17 03:25N 29°40' W 091°27'4 4.4
2014-Nov-17 02:26N 29°42' W 091°31'175 3.6
2014-Nov-15 02:06N 29°29' W 094°51'4 6.3
2014-Nov-15 01:33N 29°32' W 094°54'6 6.5
2014-Nov-15 00:33N 29°37' W 094°58'6 6.2
2014-Nov-14 23:33N 29°42' W 095°01'5 5.4
2014-Nov-14 22:33N 29°47' W 095°04'1 0.7
2014-Nov-14 21:33N 29°48' W 095°04'0 0.0
2014-Nov-14 20:33N 29°47' W 095°04'0 0.0
2014-Nov-14 19:33N 29°48' W 095°04'0 0.0
2014-Nov-14 18:33N 29°47' W 095°04'0 0.0
2014-Nov-14 17:24N 29°47' W 095°04'0 0.0
2014-Nov-14 16:31N 29°47' W 095°04'2 2.3
2014-Nov-14 15:30N 29°46' W 095°06'1 0.9
2014-Nov-14 14:33N 29°47' W 095°06'0 0.0
2014-Nov-14 11:31N 29°47' W 095°06'0 0.0
2014-Nov-14 02:23N 29°47' W 095°06'0 0.0
2014-Nov-13 23:33N 29°47' W 095°06'2 2.5
2014-Nov-13 22:33N 29°44' W 095°07'5 4.5
2014-Nov-13 21:32N 29°44' W 095°12'0 0.1
2014-Nov-13 20:33N 29°45' W 095°12'0 0.0
2014-Nov-13 19:31N 29°45' W 095°12'0 0.0
2014-Nov-13 18:27N 29°45' W 095°12'0 0.0
2014-Nov-13 17:32N 29°45' W 095°12'0 0.0
2014-Nov-13 16:28N 29°45' W 095°12'0 0.0
2014-Nov-13 15:32N 29°45' W 095°12'0 0.0
2014-Nov-13 14:33N 29°45' W 095°12'0 0.0
2014-Nov-13 13:33N 29°45' W 095°12'0 0.0
2014-Nov-12 23:21N 29°45' W 095°12'0 0.0
2014-Nov-12 22:32N 29°45' W 095°12'0 0.0
2014-Nov-12 21:33N 29°45' W 095°12'0 0.0
2014-Nov-12 20:30N 29°45' W 095°12'0 0.0
2014-Nov-12 19:33N 29°45' W 095°12'0 0.0
2014-Nov-12 18:33N 29°45' W 095°12'0 0.0
2014-Nov-12 17:33N 29°45' W 095°12'0 0.0
2014-Nov-12 16:33N 29°45' W 095°12'0 0.0
2014-Nov-12 15:33N 29°45' W 095°12'0 0.0
2014-Nov-12 14:34N 29°45' W 095°12'0 0.0
2014-Nov-12 13:33N 29°45' W 095°12'0 0.0
2014-Nov-12 12:25N 29°45' W 095°12'1 0.8
2014-Nov-12 11:33N 29°45' W 095°11'5 4.9
2014-Nov-12 10:33N 29°45' W 095°06'2 0.3
2014-Nov-12 05:23N 29°47' W 095°06'  
Track history (hours):
 
Tides and Currents Weather Stations Pressure Air Temp Water Temp Dewpoint Dewpoint Depression Visibility Wind Speed Wind Dir Waves Ship Positions

Rodney Mitchell

Owner: VINTON CROSBY INC, GOLDEN MEADOW, LA. More information available from US FCC via Universal Licensing System and Coast Guard Vessel Documentation Center.

Last reported at 2014-Nov-22 02:18 UTC. Time now 2014-Nov-22 02:54 UTC.
Position N 29°34' W 090°35'.

; draft 3 m.

Type: Towing. MMSI: 367028860.

Date/timePositionNaut miles runAvg speedWind from/ knotsBaromVisibWave heightAir tempDewpointWater temp
2014-Nov-22 02:18N 29°34' W 090°35'6 3.7
2014-Nov-22 00:33N 29°33' W 090°27'  
2014-Nov-19 00:04N 29°56' W 090°08'29 1.0
2014-Nov-17 18:26N 29°33' W 090°28'9 4.5
2014-Nov-17 16:30N 29°35' W 090°38'17 3.2
2014-Nov-17 11:21N 29°34' W 090°57'3 4.2
2014-Nov-17 10:31N 29°37' W 090°60'2 2.1
2014-Nov-17 09:33N 29°37' W 091°02'4 4.3
2014-Nov-17 08:33N 29°38' W 091°07'4 4.3
2014-Nov-17 07:33N 29°41' W 091°11'3 3.2
2014-Nov-17 06:34N 29°40' W 091°14'5 4.8
2014-Nov-17 05:33N 29°38' W 091°19'2 1.6
2014-Nov-17 04:32N 29°39' W 091°21'5 4.4
2014-Nov-17 03:25N 29°40' W 091°27'4 4.4
2014-Nov-17 02:26N 29°42' W 091°31'175 3.6
2014-Nov-15 02:06N 29°29' W 094°51'4 6.3
2014-Nov-15 01:33N 29°32' W 094°54'6 6.5
2014-Nov-15 00:33N 29°37' W 094°58'6 6.2
2014-Nov-14 23:33N 29°42' W 095°01'5 5.4
2014-Nov-14 22:33N 29°47' W 095°04'1 0.7
2014-Nov-14 21:33N 29°48' W 095°04'0 0.0
2014-Nov-14 20:33N 29°47' W 095°04'0 0.0
2014-Nov-14 19:33N 29°48' W 095°04'0 0.0
2014-Nov-14 18:33N 29°47' W 095°04'0 0.0
2014-Nov-14 17:24N 29°47' W 095°04'0 0.0
2014-Nov-14 16:31N 29°47' W 095°04'2 2.3
2014-Nov-14 15:30N 29°46' W 095°06'1 0.9
2014-Nov-14 14:33N 29°47' W 095°06'0 0.0
2014-Nov-14 11:31N 29°47' W 095°06'0 0.0
2014-Nov-14 02:23N 29°47' W 095°06'0 0.0
2014-Nov-13 23:33N 29°47' W 095°06'2 2.5
2014-Nov-13 22:33N 29°44' W 095°07'5 4.5
2014-Nov-13 21:32N 29°44' W 095°12'0 0.1
2014-Nov-13 20:33N 29°45' W 095°12'0 0.0
2014-Nov-13 19:31N 29°45' W 095°12'0 0.0
2014-Nov-13 18:27N 29°45' W 095°12'0 0.0
2014-Nov-13 17:32N 29°45' W 095°12'0 0.0
2014-Nov-13 16:28N 29°45' W 095°12'0 0.0
2014-Nov-13 15:32N 29°45' W 095°12'0 0.0
2014-Nov-13 14:33N 29°45' W 095°12'0 0.0
2014-Nov-13 13:33N 29°45' W 095°12'0 0.0
2014-Nov-12 23:21N 29°45' W 095°12'0 0.0
2014-Nov-12 22:32N 29°45' W 095°12'0 0.0
2014-Nov-12 21:33N 29°45' W 095°12'0 0.0
2014-Nov-12 20:30N 29°45' W 095°12'0 0.0
2014-Nov-12 19:33N 29°45' W 095°12'0 0.0
2014-Nov-12 18:33N 29°45' W 095°12'0 0.0
2014-Nov-12 17:33N 29°45' W 095°12'0 0.0
2014-Nov-12 16:33N 29°45' W 095°12'0 0.0
2014-Nov-12 15:33N 29°45' W 095°12'0 0.0
2014-Nov-12 14:34N 29°45' W 095°12'0 0.0
2014-Nov-12 13:33N 29°45' W 095°12'0 0.0
2014-Nov-12 12:25N 29°45' W 095°12'1 0.8
2014-Nov-12 11:33N 29°45' W 095°11'5 4.9
2014-Nov-12 10:33N 29°45' W 095°06'2 0.3
2014-Nov-12 05:23N 29°47' W 095°06'  

Dump ship's entire track history